Time;durP1;ratioP1;P1;durP2;ratioP2;P2;SDS_P1;SDS_P2;PMS_P1;PMS_P2;Temp;Humidity;BMP_temperature;BMP_pressure;BME280_temperature;BME280_humidity;BME280_pressure;Samples;Min_cycle;Max_cycle;Signal;HPM_P1;HPM_P2
2022/10/25 00:00:22;;;;;;;19.50;2.47;;;14.50;99.90;;;;;;5095669;28;20141;-72
2022/10/25 00:02:47;;;;;;;10.63;2.30;;;14.50;99.90;;;;;;5095558;28;20047;-71
2022/10/25 00:05:14;;;;;;;14.60;2.90;;;14.30;99.90;;;;;;5095784;28;20016;-72
2022/10/25 00:07:40;;;;;;;15.38;2.38;;;14.40;99.90;;;;;;5095732;28;20058;-72
2022/10/25 00:10:06;;;;;;;14.38;2.40;;;14.40;99.90;;;;;;5095148;28;20024;-72
2022/10/25 00:12:32;;;;;;;18.13;2.95;;;14.40;99.90;;;;;;5095722;28;20024;-72
2022/10/25 00:15:02;;;;;;;13.88;2.38;;;14.40;99.90;;;;;;5095273;28;20051;-71
2022/10/25 00:17:28;;;;;;;14.13;2.45;;;14.40;99.90;;;;;;5095670;28;20476;-68
2022/10/25 00:19:54;;;;;;;11.40;2.33;;;14.30;99.90;;;;;;5095331;28;20047;-69
2022/10/25 00:22:19;;;;;;;19.48;2.90;;;14.50;99.90;;;;;;5095572;28;20101;-70
2022/10/25 00:24:45;;;;;;;14.95;3.03;;;14.40;99.90;;;;;;5094798;28;20453;-72
2022/10/25 00:27:11;;;;;;;19.58;3.55;;;14.50;99.90;;;;;;5095008;28;20124;-72
2022/10/25 00:29:36;;;;;;;14.60;2.17;;;14.50;99.90;;;;;;5077092;28;20061;-71
2022/10/25 00:32:02;;;;;;;19.70;2.53;;;14.40;99.90;;;;;;5095188;28;20027;-72
2022/10/25 00:34:28;;;;;;;9.27;1.63;;;14.50;99.90;;;;;;5095098;28;20064;-72
2022/10/25 00:36:54;;;;;;;19.23;3.22;;;14.40;99.90;;;;;;5094796;28;20027;-71
2022/10/25 00:39:19;;;;;;;20.77;3.40;;;14.40;99.90;;;;;;5094807;28;20537;-72
2022/10/25 00:41:45;;;;;;;18.42;2.22;;;14.40;99.90;;;;;;5095170;28;20034;-71
2022/10/25 00:44:39;;;;;;;19.27;3.63;;;14.30;99.90;;;;;;5076564;28;20024;-72
2022/10/25 00:47:18;;;;;;;11.73;2.40;;;14.30;99.90;;;;;;5076644;28;20032;-73
2022/10/25 00:50:05;;;;;;;18.63;2.45;;;14.40;99.90;;;;;;5094930;28;20038;-72
2022/10/25 00:52:35;;;;;;;20.38;2.70;;;14.50;99.90;;;;;;5019527;28;20041;-72
2022/10/25 00:55:03;;;;;;;13.25;2.15;;;14.50;99.90;;;;;;5067210;28;20150;-71
2022/10/25 00:57:39;;;;;;;19.70;2.75;;;14.50;99.90;;;;;;5094094;28;20068;-72
2022/10/25 01:00:06;;;;;;;14.57;2.20;;;14.50;99.90;;;;;;5066851;28;20020;-72
2022/10/25 01:02:32;;;;;;;14.80;2.67;;;14.50;99.90;;;;;;5076422;28;20393;-72
2022/10/25 01:04:57;;;;;;;13.00;2.35;;;14.40;99.90;;;;;;5094129;28;20016;-71
2022/10/25 01:07:23;;;;;;;10.60;1.85;;;14.40;99.90;;;;;;5094150;28;20097;-71
2022/10/25 01:09:50;;;;;;;11.95;2.45;;;14.50;99.90;;;;;;5094371;28;20480;-72
2022/10/25 01:12:16;;;;;;;9.60;1.60;;;14.50;99.90;;;;;;5094434;28;20362;-72
2022/10/25 01:14:47;;;;;;;9.77;2.25;;;14.40;99.90;;;;;;5094468;28;20027;-72
2022/10/25 01:17:23;;;;;;;13.17;2.33;;;14.50;99.90;;;;;;5094424;28;20039;-72
2022/10/25 01:20:16;;;;;;;13.82;2.72;;;14.50;99.90;;;;;;5094196;28;20046;-72
2022/10/25 01:23:14;;;;;;;12.82;2.25;;;14.40;99.90;;;;;;5093982;28;20408;-71
2022/10/25 01:25:46;;;;;;;13.40;2.28;;;14.40;99.90;;;;;;5088796;28;20040;-72
2022/10/25 01:28:15;;;;;;;11.75;2.10;;;14.50;99.90;;;;;;5094074;28;20127;-73
2022/10/25 01:31:06;;;;;;;16.55;2.13;;;14.50;99.90;;;;;;5066299;28;20020;-72
2022/10/25 01:33:45;;;;;;;12.00;2.08;;;14.50;99.90;;;;;;5094021;28;20456;-69
2022/10/25 01:36:20;;;;;;;10.23;1.77;;;14.40;99.90;;;;;;5093838;28;20031;-71
2022/10/25 01:38:56;;;;;;;14.23;2.55;;;14.40;99.90;;;;;;5093843;28;20031;-72
2022/10/25 01:41:41;;;;;;;8.82;1.70;;;14.40;99.90;;;;;;5083703;28;20024;-72
2022/10/25 01:44:19;;;;;;;15.90;2.70;;;14.30;99.90;;;;;;5092507;28;20073;-72
2022/10/25 01:46:58;;;;;;;11.35;2.00;;;14.30;99.90;;;;;;5093634;28;20046;-71
2022/10/25 01:50:10;;;;;;;9.15;2.05;;;14.40;99.90;;;;;;5066150;28;20043;-72
2022/10/25 01:52:36;;;;;;;14.88;2.03;;;14.30;99.90;;;;;;5029944;28;20041;-72
2022/10/25 01:55:04;;;;;;;12.95;2.83;;;14.40;99.90;;;;;;5093473;28;20027;-72
2022/10/25 01:57:51;;;;;;;13.73;2.47;;;14.40;99.90;;;;;;5093623;28;20071;-72
2022/10/25 02:00:22;;;;;;;8.13;1.73;;;14.40;99.90;;;;;;5069111;28;20426;-71
2022/10/25 02:03:06;;;;;;;14.07;1.87;;;14.30;99.90;;;;;;5091383;28;20039;-71
2022/10/25 02:05:48;;;;;;;17.48;2.03;;;14.20;99.90;;;;;;5073898;28;20451;-71
2022/10/25 02:08:33;;;;;;;14.77;2.13;;;14.30;99.90;;;;;;5076388;28;20512;-72
2022/10/25 02:11:22;;;;;;;13.38;2.30;;;14.30;99.90;;;;;;5087482;28;20183;-72
2022/10/25 02:13:48;;;;;;;10.52;2.13;;;14.20;99.90;;;;;;5079057;28;20134;-72
2022/10/25 02:16:23;;;;;;;6.43;1.58;;;14.30;99.90;;;;;;5093242;28;20048;-71
2022/10/25 02:18:53;;;;;;;8.63;2.08;;;14.30;99.90;;;;;;5093107;28;20039;-72
2022/10/25 02:21:19;;;;;;;7.50;1.80;;;14.20;99.90;;;;;;5083853;28;20020;-72
2022/10/25 02:23:47;;;;;;;4.93;1.60;;;14.20;99.90;;;;;;5087962;28;20377;-72
2022/10/25 02:26:14;;;;;;;10.15;2.08;;;14.10;99.90;;;;;;5093058;28;20097;-72
2022/10/25 02:28:41;;;;;;;8.90;2.28;;;14.20;99.90;;;;;;5074719;28;20039;-72
2022/10/25 02:31:12;;;;;;;13.48;2.75;;;14.20;99.90;;;;;;5092596;28;20028;-72
2022/10/25 02:33:38;;;;;;;;;;;14.10;99.90;;;;;;5093439;28;20067;-72
2022/10/25 02:36:05;;;;;;;8.35;1.73;;;14.20;99.90;;;;;;5092616;28;19915;-72
2022/10/25 02:38:32;;;;;;;8.70;1.98;;;14.20;99.90;;;;;;5082737;28;20029;-71
2022/10/25 02:41:01;;;;;;;6.13;1.55;;;14.10;99.90;;;;;;5088797;28;20055;-72
2022/10/25 02:43:26;;;;;;;9.18;2.60;;;14.10;99.90;;;;;;5092894;28;20081;-72
2022/10/25 02:45:52;;;;;;;9.10;1.85;;;14.10;99.90;;;;;;5092943;28;20028;-72
2022/10/25 02:48:19;;;;;;;12.05;2.15;;;14.10;99.90;;;;;;5092657;28;20040;-72
2022/10/25 02:50:44;;;;;;;8.02;1.77;;;14.00;99.90;;;;;;5092656;28;20525;-72
2022/10/25 02:53:10;;;;;;;12.77;2.00;;;14.00;99.90;;;;;;5092550;28;20103;-72
2022/10/25 02:55:37;;;;;;;7.97;1.65;;;14.10;99.90;;;;;;5092805;28;20021;-72
2022/10/25 02:58:03;;;;;;;11.02;1.90;;;14.10;99.90;;;;;;5092329;28;20469;-71
2022/10/25 03:00:28;;;;;;;7.72;1.80;;;14.00;99.90;;;;;;5092613;28;20016;-72
2022/10/25 03:02:54;;;;;;;12.45;1.70;;;13.90;99.90;;;;;;5092549;28;20385;-72
2022/10/25 03:05:20;;;;;;;10.52;1.77;;;13.90;99.90;;;;;;5092471;28;20062;-71
2022/10/25 03:07:46;;;;;;;6.82;2.00;;;14.00;99.90;;;;;;5092459;28;20040;-69
2022/10/25 03:10:11;;;;;;;10.02;2.05;;;14.00;99.90;;;;;;5092543;28;20020;-72
2022/10/25 03:12:37;;;;;;;12.63;2.10;;;14.00;99.90;;;;;;5082780;28;20025;-72
2022/10/25 03:15:03;;;;;;;8.23;2.05;;;13.90;99.90;;;;;;5088111;28;20421;-72
2022/10/25 03:17:29;;;;;;;11.80;2.13;;;13.90;99.90;;;;;;5092549;28;20055;-72
2022/10/25 03:19:54;;;;;;;9.48;2.28;;;14.00;99.90;;;;;;5092425;28;20424;-72
2022/10/25 03:22:20;;;;;;;9.00;2.00;;;13.90;99.90;;;;;;5095699;28;20047;-72
2022/10/25 03:24:46;;;;;;;7.75;2.08;;;13.90;99.90;;;;;;5096449;28;20099;-72
2022/10/25 03:27:12;;;;;;;15.75;2.30;;;13.90;99.90;;;;;;5096264;28;20043;-72
2022/10/25 03:29:37;;;;;;;9.50;1.75;;;13.80;99.90;;;;;;5096408;28;20031;-72
2022/10/25 03:32:04;;;;;;;11.60;1.95;;;13.80;99.90;;;;;;5096144;28;20146;-73
2022/10/25 03:34:30;;;;;;;13.63;2.42;;;14.00;99.90;;;;;;5095946;28;20080;-72
2022/10/25 03:36:57;;;;;;;8.60;1.92;;;14.00;99.90;;;;;;5096308;28;20464;-71
2022/10/25 03:39:23;;;;;;;9.32;2.35;;;13.90;99.90;;;;;;5096147;28;20110;-73
2022/10/25 03:41:49;;;;;;;12.98;2.00;;;13.90;99.90;;;;;;5096137;28;20145;-72
2022/10/25 03:44:15;;;;;;;9.05;1.92;;;14.00;99.90;;;;;;5095988;28;20028;-72
2022/10/25 03:46:41;;;;;;;6.88;1.60;;;13.90;99.90;;;;;;5078221;28;20020;-72
2022/10/25 03:49:07;;;;;;;9.73;2.38;;;14.00;99.90;;;;;;5095204;28;20046;-68
2022/10/25 03:51:32;;;;;;;12.63;1.83;;;13.90;99.90;;;;;;5096010;28;20020;-68
2022/10/25 03:53:58;;;;;;;11.20;1.75;;;13.80;99.90;;;;;;5096000;28;20036;-67
2022/10/25 03:56:24;;;;;;;11.88;1.88;;;13.90;99.90;;;;;;5067942;28;20016;-68
2022/10/25 03:58:50;;;;;;;9.75;2.13;;;13.90;99.90;;;;;;5096212;28;20054;-72
2022/10/25 04:01:16;;;;;;;10.23;1.65;;;13.80;99.90;;;;;;5095580;28;20081;-72
2022/10/25 04:03:43;;;;;;;12.05;1.92;;;13.70;99.90;;;;;;5095873;28;20476;-71
2022/10/25 04:06:09;;;;;;;16.02;2.38;;;13.80;99.90;;;;;;5095619;28;20492;-72
2022/10/25 04:08:36;;;;;;;9.82;1.85;;;13.80;99.90;;;;;;5095574;28;20058;-72
2022/10/25 04:11:02;;;;;;;7.22;2.00;;;13.70;99.90;;;;;;5077333;28;20091;-73
2022/10/25 04:13:28;;;;;;;10.43;2.70;;;13.80;99.90;;;;;;5081321;28;20043;-72
2022/10/25 04:15:53;;;;;;;14.88;2.28;;;13.70;99.90;;;;;;5095480;28;20020;-72
2022/10/25 04:18:19;;;;;;;11.93;1.70;;;13.80;99.90;;;;;;5095492;28;20138;-72
2022/10/25 04:20:45;;;;;;;12.98;2.03;;;13.60;99.90;;;;;;5084080;28;20400;-72
2022/10/25 04:23:11;;;;;;;8.85;2.08;;;13.70;99.90;;;;;;5095334;28;20028;-72
2022/10/25 04:25:36;;;;;;;9.70;2.10;;;13.70;99.90;;;;;;5095152;28;20023;-72
2022/10/25 04:28:03;;;;;;;12.52;2.33;;;13.80;99.90;;;;;;5095174;28;20514;-71
2022/10/25 04:30:29;;;;;;;10.40;2.38;;;13.80;99.90;;;;;;5076398;28;20043;-71
2022/10/25 04:32:57;;;;;;;12.82;2.10;;;13.90;99.90;;;;;;5094340;28;20097;-70
2022/10/25 04:35:23;;;;;;;8.48;2.17;;;13.90;99.90;;;;;;5094761;28;20021;-69
2022/10/25 04:37:50;;;;;;;18.92;2.72;;;14.00;99.90;;;;;;5095146;28;20030;-71
2022/10/25 04:40:16;;;;;;;11.27;2.08;;;13.90;99.90;;;;;;5094950;28;20032;-71
2022/10/25 04:42:42;;;;;;;8.20;1.52;;;13.80;99.90;;;;;;5094927;28;20028;-71
2022/10/25 04:45:09;;;;;;;13.38;2.10;;;13.80;99.90;;;;;;5094709;28;20085;-71
2022/10/25 04:47:34;;;;;;;9.90;2.03;;;13.90;99.90;;;;;;5076954;28;20016;-71
2022/10/25 04:50:00;;;;;;;9.77;2.38;;;14.00;99.90;;;;;;5094605;28;20031;-71
2022/10/25 04:52:29;;;;;;;15.57;2.30;;;13.90;99.90;;;;;;5094649;28;20540;-72
2022/10/25 04:54:56;;;;;;;10.85;2.83;;;14.00;99.90;;;;;;5094846;28;20476;-68
2022/10/25 04:57:21;;;;;;;15.25;2.50;;;14.00;99.90;;;;;;5094753;28;20388;-70
2022/10/25 04:59:47;;;;;;;11.80;2.50;;;13.80;99.90;;;;;;5094197;28;20027;-71
2022/10/25 05:02:13;;;;;;;7.35;2.42;;;13.80;99.90;;;;;;5094599;28;20115;-68
2022/10/25 05:04:39;;;;;;;17.05;2.60;;;13.80;99.90;;;;;;5094385;28;20023;-71
2022/10/25 05:07:05;;;;;;;12.65;2.28;;;13.90;99.90;;;;;;5094356;28;20396;-71
2022/10/25 05:09:30;;;;;;;10.55;2.80;;;13.90;99.90;;;;;;5094488;28;20072;-71
2022/10/25 05:11:56;;;;;;;8.40;2.83;;;13.90;99.90;;;;;;5090072;28;20059;-72
2022/10/25 05:14:22;;;;;;;14.40;2.47;;;13.80;99.90;;;;;;5066153;28;20040;-71
2022/10/25 05:16:48;;;;;;;9.00;2.83;;;13.70;99.90;;;;;;5094274;28;20020;-69
2022/10/25 05:19:13;;;;;;;9.85;2.53;;;13.70;99.90;;;;;;5094602;28;20024;-71
2022/10/25 05:21:39;;;;;;;15.98;3.17;;;13.90;99.90;;;;;;5094226;28;20032;-71
2022/10/25 05:24:05;;;;;;;14.35;2.65;;;13.90;99.90;;;;;;5066160;28;20024;-71
2022/10/25 05:26:31;;;;;;;14.00;3.30;;;13.90;99.90;;;;;;5094091;28;20218;-68
2022/10/25 05:28:57;;;;;;;12.00;3.47;;;13.70;99.90;;;;;;5093603;28;20044;-72
2022/10/25 05:31:25;;;;;;;14.35;3.00;;;13.70;99.90;;;;;;5093864;28;20357;-70
2022/10/25 05:33:53;;;;;;;14.90;2.72;;;13.80;99.90;;;;;;5093771;28;20032;-70
2022/10/25 05:36:19;;;;;;;14.18;3.70;;;13.90;99.90;;;;;;5093808;28;20469;-68
2022/10/25 05:38:46;;;;;;;17.08;3.55;;;14.00;99.90;;;;;;5093724;28;20032;-67
2022/10/25 05:41:13;;;;;;;13.07;3.35;;;13.80;99.90;;;;;;5093611;28;20496;-67
2022/10/25 05:43:40;;;;;;;14.02;3.88;;;13.80;99.90;;;;;;5078950;28;20032;-67
2022/10/25 05:46:15;;;;;;;12.13;3.78;;;13.60;99.90;;;;;;5081348;28;20091;-68
2022/10/25 05:48:41;;;;;;;11.00;3.20;;;13.60;99.90;;;;;;5072544;28;20381;-67
2022/10/25 05:51:16;;;;;;;14.05;3.50;;;13.60;99.90;;;;;;5072229;28;20103;-68
2022/10/25 05:53:47;;;;;;;13.65;3.80;;;13.60;99.90;;;;;;5072302;28;20028;-68
2022/10/25 05:56:14;;;;;;;17.00;3.55;;;13.60;99.90;;;;;;5071682;28;20500;-68
2022/10/25 05:58:40;;;;;;;9.73;3.13;;;13.60;99.90;;;;;;5072207;28;20054;-67
2022/10/25 06:01:12;;;;;;;24.70;4.43;;;13.60;99.90;;;;;;5072005;28;20035;-69
2022/10/25 06:03:38;;;;;;;16.52;3.38;;;13.60;99.90;;;;;;5066503;28;20028;-68
2022/10/25 06:06:05;;;;;;;10.73;3.58;;;13.70;99.90;;;;;;5071975;28;20024;-70
2022/10/25 06:08:32;;;;;;;17.70;3.88;;;13.80;99.90;;;;;;5070571;28;20029;-68
2022/10/25 06:11:06;;;;;;;18.58;4.20;;;13.60;99.90;;;;;;5072016;28;20020;-71
2022/10/25 06:13:32;;;;;;;16.90;4.53;;;13.70;99.90;;;;;;5071427;28;20056;-68
2022/10/25 06:16:02;;;;;;;11.82;3.22;;;13.70;99.90;;;;;;5084244;28;20072;-68
2022/10/25 06:18:28;;;;;;;11.63;4.07;;;13.80;99.90;;;;;;5084852;28;20400;-67
2022/10/25 06:20:53;;;;;;;13.40;4.13;;;13.70;99.90;;;;;;5092036;28;20111;-68
2022/10/25 06:23:19;;;;;;;16.30;4.28;;;13.60;99.90;;;;;;5080668;28;20043;-67
2022/10/25 06:25:45;;;;;;;15.90;4.50;;;13.50;99.90;;;;;;5082305;28;20055;-68
2022/10/25 06:28:11;;;;;;;20.42;3.88;;;13.40;99.90;;;;;;5081547;28;20036;-68
2022/10/25 06:30:36;;;;;;;23.20;4.28;;;13.40;99.90;;;;;;5087947;28;20066;-69
2022/10/25 06:33:02;;;;;;;14.70;4.45;;;13.40;99.90;;;;;;5081989;28;20520;-67
2022/10/25 06:35:28;;;;;;;17.10;4.80;;;13.40;99.90;;;;;;5071531;28;20120;-68
2022/10/25 06:38:00;;;;;;;14.25;4.13;;;13.30;99.90;;;;;;5071548;28;20028;-68
2022/10/25 06:40:25;;;;;;;16.33;4.72;;;13.40;99.90;;;;;;5071027;28;20028;-67
2022/10/25 06:42:55;;;;;;;17.63;4.85;;;13.50;99.90;;;;;;5071540;28;20074;-68
2022/10/25 06:45:24;;;;;;;15.00;4.90;;;13.60;99.90;;;;;;5076288;28;20035;-68
2022/10/25 17:31:59;;;;;;;18.52;4.57;;;17.20;99.90;;;;;;4987753;22;20077;-79
2022/10/25 17:34:25;;;;;;;8.70;3.22;;;17.30;99.90;;;;;;5047259;28;20040;-78
2022/10/25 17:36:51;;;;;;;10.80;2.97;;;17.20;99.90;;;;;;5051589;28;20025;-81
2022/10/25 17:39:17;;;;;;;12.10;2.95;;;17.20;99.90;;;;;;5061802;28;20032;-78
2022/10/25 17:41:42;;;;;;;11.23;3.03;;;17.10;99.90;;;;;;5062240;28;20073;-78
2022/10/25 17:44:11;;;;;;;11.93;3.58;;;17.10;99.90;;;;;;5062419;28;20475;-77
2022/10/25 17:46:37;;;;;;;15.13;4.45;;;17.10;99.90;;;;;;5060933;28;20021;-77
2022/10/25 17:49:04;;;;;;;10.82;4.22;;;17.00;99.90;;;;;;5063732;28;20127;-79
2022/10/25 17:51:32;;;;;;;20.90;4.70;;;17.10;99.90;;;;;;5059490;28;20029;-78
2022/10/25 17:53:58;;;;;;;12.95;4.38;;;17.00;99.90;;;;;;5065311;28;20382;-78
2022/10/25 17:56:25;;;;;;;29.58;4.53;;;16.90;99.90;;;;;;5059523;28;20124;-77
2022/10/25 17:58:52;;;;;;;27.40;4.55;;;16.90;99.90;;;;;;5063584;28;20078;-78
2022/10/25 18:01:24;;;;;;;18.50;4.97;;;16.90;99.90;;;;;;5060631;28;20025;-77
2022/10/25 18:03:51;;;;;;;10.07;4.13;;;16.90;99.90;;;;;;5062344;28;20043;-78
2022/10/25 18:06:20;;;;;;;15.30;4.35;;;16.90;99.90;;;;;;5061860;28;20386;-78
2022/10/25 18:08:54;;;;;;;14.88;5.10;;;17.10;99.90;;;;;;5044314;28;20056;-79
2022/10/25 18:11:22;;;;;;;13.23;3.90;;;16.90;99.90;;;;;;5053899;28;20463;-79
2022/10/25 18:13:56;;;;;;;17.05;3.75;;;17.00;99.90;;;;;;5056730;28;20466;-78
2022/10/25 18:16:25;;;;;;;18.60;3.70;;;17.00;99.90;;;;;;5058235;28;20024;-79
2022/10/25 18:18:53;;;;;;;13.80;3.45;;;16.90;99.90;;;;;;5072493;28;20348;-69
2022/10/25 18:21:19;;;;;;;11.07;2.92;;;16.80;99.90;;;;;;5073114;28;20040;-78
2022/10/25 18:23:45;;;;;;;12.80;2.70;;;16.50;99.90;;;;;;5073015;28;20070;-79
2022/10/25 18:26:14;;;;;;;16.52;2.95;;;16.40;99.90;;;;;;5072920;28;20410;-78
2022/10/25 18:28:39;;;;;;;11.23;2.97;;;16.40;99.90;;;;;;5070988;28;20068;-77
2022/10/25 18:31:08;;;;;;;10.05;3.08;;;16.30;99.90;;;;;;5072909;28;20020;-78
2022/10/25 18:33:37;;;;;;;9.63;2.30;;;16.50;99.90;;;;;;5071731;28;20053;-79
2022/10/25 18:36:04;;;;;;;7.85;2.83;;;16.50;99.90;;;;;;5071653;28;20017;-76
2022/10/25 18:38:30;;;;;;;15.32;2.80;;;16.50;99.90;;;;;;5072393;28;20024;-78
2022/10/25 18:40:56;;;;;;;11.13;2.85;;;16.60;99.90;;;;;;5068112;28;20390;-79
2022/10/25 18:43:23;;;;;;;18.50;3.15;;;16.50;99.90;;;;;;5063140;28;20023;-79
2022/10/25 18:45:49;;;;;;;20.25;3.58;;;16.40;99.90;;;;;;5069548;28;20106;-79
2022/10/25 18:48:15;;;;;;;9.00;2.70;;;16.50;99.90;;;;;;5061315;28;20048;-75
2022/10/25 18:50:41;;;;;;;13.40;3.28;;;16.30;99.90;;;;;;5072392;28;20024;-75
2022/10/25 18:53:06;;;;;;;13.02;3.60;;;16.20;99.90;;;;;;5071544;28;20028;-79
2022/10/25 18:55:32;;;;;;;15.73;3.55;;;16.30;99.90;;;;;;5072560;28;20017;-75
2022/10/25 18:58:00;;;;;;;15.77;3.58;;;16.20;99.90;;;;;;5066153;28;20028;-75
2022/10/25 19:00:30;;;;;;;15.43;3.85;;;16.30;99.90;;;;;;5050296;28;20036;-78
2022/10/25 19:02:56;;;;;;;24.63;4.75;;;16.40;99.90;;;;;;5057755;28;20608;-79
2022/10/25 19:05:27;;;;;;;16.77;4.35;;;16.20;99.90;;;;;;5059099;28;20025;-79
2022/10/25 19:07:53;;;;;;;15.10;4.10;;;15.90;99.90;;;;;;5054030;28;20033;-79
2022/10/25 19:10:19;;;;;;;17.75;3.92;;;15.80;99.90;;;;;;5057636;28;20048;-76
2022/10/25 19:12:45;;;;;;;18.63;4.80;;;15.90;99.90;;;;;;5055513;28;20029;-79
2022/10/25 19:15:11;;;;;;;21.90;4.32;;;16.10;99.90;;;;;;5066203;28;20035;-75
2022/10/25 19:17:37;;;;;;;13.93;4.38;;;16.10;99.90;;;;;;5054791;28;20798;-80
2022/10/25 19:20:03;;;;;;;22.70;4.57;;;16.10;99.90;;;;;;5058065;28;20031;-79
2022/10/25 19:22:29;;;;;;;11.93;4.78;;;16.00;99.90;;;;;;5064832;28;20021;-79
2022/10/25 19:24:55;;;;;;;16.55;3.90;;;15.80;99.90;;;;;;5068255;28;20461;-77
2022/10/25 19:27:21;;;;;;;13.63;4.70;;;15.60;99.90;;;;;;5067739;28;20098;-78
2022/10/25 19:29:48;;;;;;;17.13;5.03;;;15.80;99.90;;;;;;5053893;28;20032;-77
2022/10/25 19:32:13;;;;;;;16.13;4.18;;;15.80;99.90;;;;;;5063893;28;20112;-79
2022/10/25 19:34:39;;;;;;;10.20;3.47;;;15.70;99.90;;;;;;5052925;28;20124;-78
2022/10/25 19:37:07;;;;;;;13.50;3.33;;;15.60;99.90;;;;;;5059712;28;20028;-78
2022/10/25 19:39:34;;;;;;;11.90;3.63;;;15.60;99.90;;;;;;5057304;28;20036;-79
2022/10/25 19:42:00;;;;;;;13.07;3.20;;;15.60;99.90;;;;;;5061166;28;20111;-79
2022/10/25 19:44:26;;;;;;;13.07;3.03;;;15.60;99.90;;;;;;5057140;28;20113;-79
2022/10/25 19:46:52;;;;;;;12.95;3.80;;;15.50;99.90;;;;;;5056468;28;20035;-78
2022/10/25 19:49:17;;;;;;;10.27;3.78;;;15.40;99.90;;;;;;5056116;28;20076;-79
2022/10/25 19:51:43;;;;;;;12.70;3.17;;;15.40;99.90;;;;;;5057575;28;20018;-78
2022/10/25 19:54:09;;;;;;;10.18;3.47;;;15.30;99.90;;;;;;5061494;28;20482;-74
2022/10/25 19:56:36;;;;;;;8.82;3.03;;;15.30;99.90;;;;;;5051728;28;20017;-76
2022/10/25 19:59:05;;;;;;;7.80;3.20;;;15.20;99.90;;;;;;5051457;28;20029;-78
2022/10/25 20:01:31;;;;;;;15.02;3.33;;;15.20;99.90;;;;;;5065667;28;20445;-78
2022/10/25 20:03:58;;;;;;;13.38;3.85;;;15.10;99.90;;;;;;5057090;28;20120;-78
2022/10/25 20:06:28;;;;;;;16.13;4.13;;;15.00;99.90;;;;;;5072865;28;20024;-75
2022/10/25 20:08:55;;;;;;;13.98;4.10;;;15.10;99.90;;;;;;5075066;28;20101;-78
2022/10/25 20:11:22;;;;;;;9.70;4.20;;;15.20;99.90;;;;;;5074525;28;20023;-76
2022/10/25 20:13:53;;;;;;;17.23;4.18;;;15.10;99.90;;;;;;5060909;28;20025;-73
2022/10/25 20:16:19;;;;;;;7.80;4.28;;;15.10;99.90;;;;;;5075310;28;20037;-76
2022/10/25 20:18:44;;;;;;;11.30;4.13;;;14.90;99.90;;;;;;5075108;28;20074;-81
2022/10/25 20:21:15;;;;;;;14.63;4.70;;;15.00;99.90;;;;;;5075411;28;20029;-77
2022/10/25 20:23:48;;;;;;;11.27;4.90;;;15.00;99.90;;;;;;5073888;28;20029;-78
2022/10/25 20:26:21;;;;;;;12.95;4.35;;;14.90;99.90;;;;;;5075319;28;20040;-77
2022/10/25 20:28:47;;;;;;;13.00;3.97;;;14.80;99.90;;;;;;5074516;28;20123;-78
2022/10/25 20:31:14;;;;;;;11.18;4.55;;;14.70;99.90;;;;;;5075451;28;20021;-79
2022/10/25 20:33:41;;;;;;;15.98;4.85;;;14.60;99.90;;;;;;5073512;28;20051;-74
2022/10/25 20:36:09;;;;;;;8.43;4.22;;;14.60;99.90;;;;;;5074904;28;20017;-79
2022/10/25 20:38:36;;;;;;;11.18;4.25;;;14.60;99.90;;;;;;5074979;28;20029;-76
2022/10/25 20:41:15;;;;;;;11.68;4.10;;;14.60;99.90;;;;;;5074807;28;20073;-78
2022/10/25 20:43:45;;;;;;;13.30;4.90;;;14.50;99.90;;;;;;5074542;28;20033;-73
2022/10/25 20:46:11;;;;;;;12.32;4.20;;;14.60;99.90;;;;;;5074641;28;20031;-78
2022/10/25 20:48:36;;;;;;;10.77;4.53;;;14.70;99.90;;;;;;5073349;28;20044;-78
2022/10/25 20:51:03;;;;;;;12.35;4.03;;;14.70;99.90;;;;;;5074589;28;20021;-78
2022/10/25 20:53:29;;;;;;;13.40;4.43;;;14.70;99.90;;;;;;5074767;28;20024;-74
2022/10/25 20:55:54;;;;;;;13.70;4.45;;;14.60;99.90;;;;;;5073107;28;20024;-73
2022/10/25 20:58:21;;;;;;;12.52;4.18;;;14.60;99.90;;;;;;5074625;28;20382;-78
2022/10/25 21:00:48;;;;;;;16.73;4.03;;;14.50;99.90;;;;;;5073214;28;20035;-77
2022/10/25 21:03:14;;;;;;;10.00;3.70;;;14.60;99.90;;;;;;5051519;22;20041;-69
2022/10/25 21:05:44;;;;;;;10.60;4.20;;;14.50;99.90;;;;;;4997303;28;20045;-69
2022/10/25 21:08:11;;;;;;;17.20;4.28;;;14.70;99.90;;;;;;5014710;28;20461;-69
2022/10/25 21:10:41;;;;;;;10.30;3.83;;;14.50;99.90;;;;;;5014756;28;20022;-69
2022/10/25 21:13:07;;;;;;;19.08;4.93;;;14.60;99.90;;;;;;5014231;28;20477;-69
2022/10/25 21:15:34;;;;;;;11.77;4.28;;;14.60;99.90;;;;;;4996057;28;20031;-69
2022/10/25 21:18:00;;;;;;;10.32;4.50;;;14.60;99.90;;;;;;5014975;28;20350;-69
2022/10/25 21:20:27;;;;;;;8.45;3.83;;;14.50;99.90;;;;;;5014659;28;20026;-69
2022/10/25 21:22:55;;;;;;;14.45;4.20;;;14.40;99.90;;;;;;5014492;28;20072;-69
2022/10/25 21:25:21;;;;;;;11.75;3.95;;;14.50;99.90;;;;;;5014186;28;20030;-68
2022/10/25 21:27:46;;;;;;;12.38;4.00;;;14.60;99.90;;;;;;5014314;28;20026;-69
2022/10/25 21:30:12;;;;;;;9.05;3.47;;;14.40;99.90;;;;;;5014184;28;20385;-69
2022/10/25 21:32:38;;;;;;;14.50;3.45;;;14.40;99.90;;;;;;4996630;28;20049;-69
2022/10/25 21:35:04;;;;;;;10.90;3.25;;;14.40;99.90;;;;;;5014324;28;20061;-69
2022/10/25 21:37:29;;;;;;;12.77;3.80;;;14.40;99.90;;;;;;5013971;28;20100;-69
2022/10/25 21:39:55;;;;;;;12.90;3.67;;;14.50;99.90;;;;;;5013971;28;20079;-69
2022/10/25 21:42:21;;;;;;;10.52;3.47;;;14.50;99.90;;;;;;5013967;28;20036;-69
2022/10/25 21:44:47;;;;;;;14.88;3.40;;;14.60;99.90;;;;;;5014131;28;20184;-69
2022/10/25 21:47:12;;;;;;;13.88;3.70;;;14.60;99.90;;;;;;5013779;28;20026;-69
2022/10/25 21:49:38;;;;;;;9.80;3.70;;;14.70;99.90;;;;;;5013973;28;20048;-69
2022/10/25 21:52:04;;;;;;;13.07;3.50;;;14.50;99.90;;;;;;4996356;28;20480;-69
2022/10/25 21:54:30;;;;;;;13.73;3.42;;;14.60;99.90;;;;;;5013578;28;20034;-69
2022/10/25 21:56:55;;;;;;;13.75;3.40;;;14.70;99.90;;;;;;5013793;28;20022;-69
2022/10/25 21:59:21;;;;;;;9.65;4.00;;;14.60;99.90;;;;;;5013699;28;20034;-70
2022/10/25 22:01:48;;;;;;;11.63;3.78;;;14.50;99.90;;;;;;5013495;28;20037;-69
2022/10/25 22:04:15;;;;;;;21.38;4.28;;;14.50;99.90;;;;;;4996065;28;20433;-69
2022/10/25 22:06:40;;;;;;;12.77;3.17;;;14.60;99.90;;;;;;5017936;28;20026;-69
2022/10/25 22:09:07;;;;;;;7.43;3.05;;;14.60;99.90;;;;;;5013100;28;20433;-69
2022/10/25 22:11:35;;;;;;;11.35;3.45;;;14.50;99.90;;;;;;5013484;28;20037;-69
2022/10/25 22:14:06;;;;;;;13.40;3.40;;;14.50;99.90;;;;;;4996189;28;20053;-69
2022/10/25 22:16:32;;;;;;;;;;;14.60;99.90;;;;;;5013945;28;20026;-69
2022/10/25 22:19:01;;;;;;;19.45;3.67;;;14.60;99.90;;;;;;5013297;28;19992;-69
2022/10/25 22:21:30;;;;;;;11.65;3.45;;;14.60;99.90;;;;;;5013419;28;20033;-69
2022/10/25 22:23:56;;;;;;;12.02;3.45;;;14.50;99.90;;;;;;5013010;28;20378;-69
2022/10/25 22:26:22;;;;;;;10.60;3.75;;;14.40;99.90;;;;;;5013377;28;20041;-69
2022/10/25 22:28:56;;;;;;;13.02;3.50;;;14.30;99.90;;;;;;5013133;28;20034;-69
2022/10/25 22:31:23;;;;;;;9.13;3.53;;;14.30;99.90;;;;;;5013360;28;20537;-69
2022/10/25 22:34:01;;;;;;;12.52;3.92;;;14.30;99.90;;;;;;5012746;28;20038;-69
2022/10/25 22:36:32;;;;;;;16.08;3.80;;;14.30;99.90;;;;;;5013259;28;20053;-69
2022/10/25 22:38:58;;;;;;;15.32;3.42;;;14.30;99.90;;;;;;5012691;28;20073;-68
2022/10/25 22:41:26;;;;;;;14.77;3.90;;;14.40;99.90;;;;;;5013372;28;20113;-69
2022/10/25 22:43:52;;;;;;;9.45;3.45;;;14.40;99.90;;;;;;5012875;28;20033;-69
2022/10/25 22:46:22;;;;;;;16.00;4.22;;;14.50;99.90;;;;;;5013077;28;20117;-69
2022/10/25 22:48:48;;;;;;;8.38;3.17;;;14.40;99.90;;;;;;5012966;28;20080;-69
2022/10/25 22:51:14;;;;;;;9.45;3.95;;;14.40;99.90;;;;;;5013055;28;20061;-69
2022/10/25 22:53:40;;;;;;;8.68;3.42;;;14.40;99.90;;;;;;4995065;28;20033;-69
2022/10/25 22:56:08;;;;;;;11.98;3.92;;;14.40;99.90;;;;;;5013013;28;20033;-69
2022/10/25 22:58:35;;;;;;;9.23;3.63;;;14.50;99.90;;;;;;4995269;28;20030;-69
2022/10/25 23:01:12;;;;;;;17.70;4.07;;;14.50;99.90;;;;;;4995152;28;20030;-68
2022/10/25 23:03:43;;;;;;;9.77;3.40;;;14.50;99.90;;;;;;5012897;28;20052;-69
2022/10/25 23:06:11;;;;;;;11.30;3.72;;;14.60;99.90;;;;;;5012873;28;20156;-69
2022/10/25 23:08:37;;;;;;;12.88;3.55;;;14.60;99.90;;;;;;5012602;28;20044;-69
2022/10/25 23:11:13;;;;;;;11.85;3.80;;;14.50;99.90;;;;;;5012761;28;20120;-69
2022/10/25 23:13:39;;;;;;;12.50;3.55;;;14.40;99.90;;;;;;5012482;28;20112;-69
2022/10/25 23:16:05;;;;;;;12.45;3.92;;;14.30;99.90;;;;;;5012940;28;20105;-69
2022/10/25 23:18:31;;;;;;;13.25;4.47;;;14.30;99.90;;;;;;5012544;28;20049;-68
2022/10/25 23:20:59;;;;;;;11.13;3.47;;;14.40;99.90;;;;;;4995442;28;20069;-69
2022/10/25 23:23:26;;;;;;;11.10;3.40;;;14.40;99.90;;;;;;5012443;28;20025;-69
2022/10/25 23:25:53;;;;;;;14.02;3.95;;;14.50;99.90;;;;;;5012652;28;20134;-69
2022/10/25 23:28:19;;;;;;;10.43;3.28;;;14.50;99.90;;;;;;5012578;28;20504;-69